createdAt,value
2022-11-03T00:01:53.469Z,7.80
2022-11-03T00:06:54.144Z,7.70
2022-11-03T00:09:24.524Z,7.80
2022-11-03T00:11:54.481Z,7.80
2022-11-03T00:14:22.040Z,7.80
2022-11-03T00:16:49.824Z,7.80
2022-11-03T00:24:14.234Z,7.90
2022-11-03T00:26:43.891Z,7.80
2022-11-03T00:29:13.302Z,7.80
2022-11-03T00:34:10.074Z,7.80
2022-11-03T00:36:43.181Z,7.00
2022-11-03T00:39:11.196Z,8.60
2022-11-03T00:41:38.708Z,7.90
2022-11-03T00:44:06.450Z,7.90
2022-11-03T00:46:36.580Z,7.90
2022-11-03T00:49:04.581Z,7.90
2022-11-03T00:51:34.632Z,7.90
2022-11-03T00:54:02.643Z,7.90
2022-11-03T00:56:38.636Z,7.90
2022-11-03T00:59:07.334Z,7.90
2022-11-03T01:01:42.146Z,8.00
2022-11-03T01:04:30.570Z,7.90
2022-11-03T01:06:59.784Z,8.00
2022-11-03T01:09:29.907Z,8.00
2022-11-03T01:12:08.389Z,8.00
2022-11-03T01:14:46.492Z,8.00
2022-11-03T01:17:19.929Z,7.60
2022-11-03T01:19:47.987Z,7.90
2022-11-03T01:22:16.904Z,8.60
2022-11-03T01:24:44.844Z,8.00
2022-11-03T01:27:18.863Z,7.90
2022-11-03T01:29:46.557Z,8.00
2022-11-03T01:32:14.154Z,8.00
2022-11-03T01:37:12.046Z,8.00
2022-11-03T01:39:40.643Z,8.10
2022-11-03T01:42:10.430Z,7.50
2022-11-03T01:44:43.642Z,8.10
2022-11-03T01:47:20.181Z,7.50
2022-11-03T01:50:01.611Z,8.20
2022-11-03T01:52:37.130Z,9.00
2022-11-03T01:55:16.789Z,8.20
2022-11-03T01:57:53.879Z,9.00
2022-11-03T02:02:51.622Z,8.30
2022-11-03T02:05:19.608Z,8.30
2022-11-03T02:07:56.442Z,8.70
2022-11-03T02:10:24.888Z,8.40
2022-11-03T02:12:52.892Z,8.40
2022-11-03T02:15:24.606Z,8.40
2022-11-03T02:17:54.533Z,8.50
2022-11-03T02:20:31.668Z,8.50
2022-11-03T02:23:10.329Z,9.10
2022-11-03T02:25:41.961Z,8.60
2022-11-03T02:28:13.699Z,8.60
2022-11-03T02:31:20.747Z,8.60
2022-11-03T02:33:59.972Z,8.70
2022-11-03T02:36:49.353Z,8.70
2022-11-03T02:39:32.156Z,8.70
2022-11-03T02:42:04.173Z,8.70
2022-11-03T02:44:34.602Z,8.70
2022-11-03T02:47:07.498Z,7.90
2022-11-03T02:49:46.048Z,8.80
2022-11-03T02:52:46.318Z,8.00
2022-11-03T02:55:35.444Z,8.80
2022-11-03T02:58:17.016Z,8.90
2022-11-03T03:01:04.920Z,9.10
2022-11-03T03:03:39.733Z,8.90
2022-11-03T03:06:22.759Z,8.70
2022-11-03T03:08:58.992Z,8.90
2022-11-03T03:11:39.007Z,8.90
2022-11-03T03:14:14.210Z,8.90
2022-11-03T03:17:03.181Z,9.00
2022-11-03T03:22:04.356Z,9.00
2022-11-03T03:25:01.564Z,9.00
2022-11-03T03:27:32.168Z,9.00
2022-11-03T03:30:07.223Z,9.10
2022-11-03T03:32:44.097Z,8.00
2022-11-03T03:35:17.953Z,9.20
2022-11-03T03:37:51.843Z,9.20
2022-11-03T03:40:27.580Z,9.20
2022-11-03T03:42:55.345Z,9.20
2022-11-03T03:45:24.702Z,9.20
2022-11-03T03:50:27.444Z,9.00
2022-11-03T03:53:13.692Z,9.30
2022-11-03T03:55:43.957Z,9.30
2022-11-03T03:58:15.096Z,9.30
2022-11-03T04:03:21.847Z,9.40
2022-11-03T04:05:49.427Z,9.30
2022-11-03T04:08:19.876Z,9.40
2022-11-03T04:11:05.942Z,9.40
2022-11-03T04:14:12.172Z,9.60
2022-11-03T04:16:57.986Z,9.40
2022-11-03T04:19:46.683Z,9.40
2022-11-03T04:22:18.509Z,9.40
2022-11-03T04:24:51.553Z,9.40
2022-11-03T04:27:33.859Z,9.40
2022-11-03T04:30:24.970Z,9.40
2022-11-03T04:32:53.010Z,9.40
2022-11-03T04:35:28.903Z,9.20
2022-11-03T04:38:03.780Z,9.40
2022-11-03T04:40:31.660Z,9.40
2022-11-03T04:42:59.500Z,9.40
2022-11-03T04:45:30.871Z,9.30
2022-11-03T04:48:01.946Z,9.40
2022-11-03T04:50:29.361Z,9.30
2022-11-03T04:52:58.795Z,9.20
2022-11-03T04:55:26.923Z,9.30
2022-11-03T04:58:10.945Z,9.40
2022-11-03T05:00:39.386Z,9.40
2022-11-03T05:03:16.703Z,9.40
2022-11-03T05:05:44.394Z,9.40
2022-11-03T05:08:13.751Z,9.50
2022-11-03T05:10:47.160Z,9.40
2022-11-03T05:13:25.674Z,9.40
2022-11-03T05:16:03.694Z,9.50
2022-11-03T05:18:32.504Z,9.50
2022-11-03T05:21:04.125Z,9.40
2022-11-03T05:23:40.749Z,9.40
2022-11-03T05:26:35.128Z,9.50
2022-11-03T05:29:11.474Z,9.50
2022-11-03T05:31:41.266Z,9.50
2022-11-03T05:34:23.757Z,9.40
2022-11-03T05:36:53.380Z,9.50
2022-11-03T05:44:39.733Z,9.40
2022-11-03T05:47:19.175Z,9.50
2022-11-03T05:49:47.306Z,9.00
2022-11-03T05:54:50.621Z,9.50
2022-11-03T05:59:49.772Z,9.90
2022-11-03T06:02:29.229Z,9.50
2022-11-03T06:07:26.941Z,9.60
2022-11-03T06:09:55.727Z,9.60
2022-11-03T06:12:24.256Z,9.60
2022-11-03T06:14:52.689Z,9.30
2022-11-03T06:17:26.533Z,8.10
2022-11-03T06:19:59.501Z,9.60
2022-11-03T06:22:37.300Z,9.60
2022-11-03T06:30:30.343Z,9.60
2022-11-03T06:33:02.023Z,9.70
2022-11-03T06:35:29.636Z,9.70
2022-11-03T06:37:58.005Z,9.70
2022-11-03T06:40:35.405Z,9.70
2022-11-03T06:43:17.048Z,9.70
2022-11-03T06:45:58.342Z,9.70
2022-11-03T06:48:28.939Z,8.50
2022-11-03T06:51:00.133Z,8.70
2022-11-03T06:53:31.485Z,9.80
2022-11-03T06:58:33.242Z,8.70
2022-11-03T07:01:11.720Z,9.80
2022-11-03T07:06:26.187Z,8.90
2022-11-03T07:09:00.053Z,9.90
2022-11-03T07:11:30.912Z,9.20
2022-11-03T07:14:09.961Z,9.90
2022-11-03T07:17:12.861Z,10.00
2022-11-03T07:19:45.324Z,10.00
2022-11-03T07:22:39.276Z,10.00
2022-11-03T07:25:14.243Z,9.90
2022-11-03T07:35:41.858Z,10.10
2022-11-03T07:38:19.200Z,10.20
2022-11-03T07:43:25.374Z,7.40
2022-11-03T07:45:55.317Z,10.20
2022-11-03T07:48:46.183Z,10.20
2022-11-03T07:51:27.573Z,10.30
2022-11-03T07:54:02.235Z,10.20
2022-11-03T07:57:19.296Z,10.30
2022-11-03T07:59:50.868Z,10.30
2022-11-03T08:02:59.618Z,10.20
2022-11-03T08:12:50.366Z,11.50
2022-11-03T08:22:49.773Z,10.30
2022-11-03T08:25:30.033Z,10.40
2022-11-03T08:27:57.806Z,10.30
2022-11-03T08:30:25.376Z,10.20
2022-11-03T08:37:48.200Z,10.30
2022-11-03T08:42:43.305Z,10.10
2022-11-03T08:45:11.373Z,10.50
2022-11-03T08:55:02.778Z,12.10
2022-11-03T08:57:30.431Z,10.50
2022-11-03T09:15:06.144Z,11.10
2022-11-03T09:17:37.754Z,12.50
2022-11-03T09:20:07.749Z,11.30
2022-11-03T09:27:33.405Z,12.20
2022-11-03T09:37:38.885Z,11.20
2022-11-03T09:57:30.983Z,11.20
2022-11-03T10:02:31.876Z,11.40
2022-11-03T10:05:04.393Z,11.40
2022-11-03T10:10:04.891Z,11.30
2022-11-03T10:12:36.201Z,12.30
2022-11-03T10:15:03.866Z,11.10
2022-11-03T10:17:31.846Z,10.70
2022-11-03T10:22:27.216Z,12.60
2022-11-03T10:25:27.996Z,10.30
2022-11-03T10:28:24.316Z,11.10
2022-11-03T10:31:13.089Z,11.00
2022-11-03T10:33:53.117Z,10.90
2022-11-03T10:36:20.819Z,10.90
2022-11-03T10:38:48.735Z,10.90
2022-11-03T10:41:17.312Z,10.90
2022-11-03T10:54:22.843Z,10.90
2022-11-03T10:59:31.960Z,11.10
2022-11-03T11:02:00.500Z,10.90
2022-11-03T11:04:28.401Z,10.90
2022-11-03T11:06:55.939Z,11.10
2022-11-03T11:09:28.114Z,11.00
2022-11-03T11:12:34.813Z,11.00
2022-11-03T11:17:42.273Z,11.00
2022-11-03T11:20:31.398Z,11.00
2022-11-03T11:28:33.842Z,11.00
2022-11-03T11:31:01.380Z,11.10
2022-11-03T11:33:31.790Z,10.10
2022-11-03T11:36:00.169Z,11.10
2022-11-03T11:45:03.493Z,11.20
2022-11-03T11:47:51.143Z,11.20
2022-11-03T11:50:23.419Z,11.60
2022-11-03T11:53:00.461Z,11.20
2022-11-03T11:55:38.224Z,11.10
2022-11-03T11:58:19.690Z,11.10
2022-11-03T12:03:33.817Z,11.70
2022-11-03T12:06:02.969Z,11.20
2022-11-03T12:11:03.931Z,10.90
2022-11-03T12:13:47.844Z,10.80
2022-11-03T12:21:46.244Z,10.80
2022-11-03T12:24:33.481Z,10.80
2022-11-03T12:27:01.494Z,10.70
2022-11-03T12:29:31.406Z,10.90
2022-11-03T12:54:12.537Z,10.50
2022-11-03T12:59:11.697Z,10.50
2022-11-03T13:26:36.306Z,11.60
2022-11-03T13:33:59.941Z,10.10
2022-11-03T13:36:29.871Z,10.00
2022-11-03T13:41:30.635Z,10.60
2022-11-03T13:51:41.985Z,10.00
2022-11-03T14:07:45.275Z,9.60
2022-11-03T14:10:21.532Z,9.80
2022-11-03T14:12:48.818Z,9.80
2022-11-03T14:17:47.999Z,9.70
2022-11-03T14:27:39.475Z,11.50
2022-11-03T14:30:12.915Z,9.70
2022-11-03T14:32:48.079Z,7.60
2022-11-03T14:43:03.345Z,9.60
2022-11-03T14:47:59.473Z,11.10
2022-11-03T15:00:26.978Z,10.20
2022-11-03T15:05:46.990Z,9.50
2022-11-03T15:08:16.413Z,9.40
2022-11-03T15:13:11.993Z,10.00
2022-11-03T15:15:42.556Z,9.40
2022-11-03T15:20:41.848Z,10.80
2022-11-03T15:25:59.613Z,8.60
2022-11-03T15:28:27.237Z,9.30
2022-11-03T15:30:54.666Z,9.30
2022-11-03T15:33:22.337Z,10.80
2022-11-03T15:40:47.786Z,9.30
2022-11-03T15:43:17.718Z,9.30
2022-11-03T15:48:13.113Z,9.70
2022-11-03T15:53:08.276Z,7.30
2022-11-03T15:55:35.858Z,9.20
2022-11-03T16:05:29.226Z,9.50
2022-11-03T16:07:56.396Z,9.00
2022-11-03T16:10:23.955Z,10.20
2022-11-03T16:12:53.778Z,9.00
2022-11-03T16:15:21.249Z,11.00
2022-11-03T16:22:44.851Z,8.90
2022-11-03T16:27:46.748Z,10.40
2022-11-03T16:30:15.757Z,7.70
2022-11-03T16:35:13.473Z,9.20
2022-11-03T16:37:40.739Z,8.70
2022-11-03T16:40:12.503Z,10.40
2022-11-03T16:42:46.058Z,10.60
2022-11-03T16:45:21.586Z,8.00
2022-11-03T16:52:49.538Z,8.60
2022-11-03T16:55:18.101Z,7.00
2022-11-03T16:57:45.967Z,7.50
2022-11-03T17:02:42.874Z,7.30
2022-11-03T17:05:10.992Z,8.70
2022-11-03T17:10:07.216Z,9.80
2022-11-03T17:12:34.436Z,6.80
2022-11-03T17:15:01.971Z,6.70
2022-11-03T17:17:29.497Z,8.70
2022-11-03T17:19:56.953Z,7.80
2022-11-03T17:22:25.384Z,8.70
2022-11-03T17:27:27.584Z,6.70
2022-11-03T17:29:59.358Z,6.60
2022-11-03T17:32:36.085Z,8.70
2022-11-03T17:35:10.317Z,8.70
2022-11-03T17:40:07.483Z,10.10
2022-11-03T17:45:02.816Z,10.70
2022-11-03T17:52:29.132Z,8.80
2022-11-03T17:55:02.541Z,10.80
2022-11-03T18:00:02.958Z,10.40
2022-11-03T18:02:32.985Z,8.80
2022-11-03T18:05:18.450Z,8.80
2022-11-03T18:07:52.586Z,8.70
2022-11-03T18:13:07.976Z,8.70
2022-11-03T18:15:39.231Z,8.80
2022-11-03T18:18:13.665Z,10.30
2022-11-03T18:20:51.797Z,8.80
2022-11-03T18:23:25.599Z,9.60
2022-11-03T18:25:53.621Z,8.80
2022-11-03T18:28:21.199Z,8.80
2022-11-03T18:30:51.579Z,8.80
2022-11-03T18:33:26.938Z,8.80
2022-11-03T18:35:54.988Z,8.80
2022-11-03T18:38:24.253Z,8.90
2022-11-03T18:40:51.913Z,8.80
2022-11-03T18:43:24.547Z,8.80
2022-11-03T18:48:20.587Z,8.70
2022-11-03T18:50:52.936Z,6.30
2022-11-03T18:53:23.756Z,8.70
2022-11-03T18:58:22.569Z,8.60
2022-11-03T19:00:50.351Z,8.60
2022-11-03T19:05:48.066Z,8.20
2022-11-03T19:08:25.863Z,10.60
2022-11-03T19:10:54.674Z,9.50
2022-11-03T19:13:33.074Z,10.50
2022-11-03T19:16:02.185Z,8.50
2022-11-03T19:18:33.320Z,8.40
2022-11-03T19:21:03.226Z,8.90
2022-11-03T19:23:30.625Z,10.10
2022-11-03T19:26:00.200Z,7.20
2022-11-03T19:28:29.957Z,8.50
2022-11-03T19:30:58.349Z,8.70
2022-11-03T19:33:27.885Z,8.50
2022-11-03T19:43:39.763Z,10.70
2022-11-03T19:46:12.109Z,8.50
2022-11-03T19:51:07.758Z,10.50
2022-11-03T19:53:35.965Z,10.50
2022-11-03T19:56:04.419Z,8.50
2022-11-03T19:58:31.979Z,8.80
2022-11-03T20:01:05.612Z,7.80
2022-11-03T20:03:35.859Z,6.10
2022-11-03T20:06:03.484Z,8.50
2022-11-03T20:08:33.161Z,8.50
2022-11-03T20:11:00.937Z,8.50
2022-11-03T20:13:34.426Z,8.90
2022-11-03T20:16:01.912Z,8.50
2022-11-03T20:18:29.515Z,8.50
2022-11-03T20:20:57.144Z,8.50
2022-11-03T20:23:31.096Z,8.50
2022-11-03T20:25:59.234Z,8.50
2022-11-03T20:28:33.411Z,8.60
2022-11-03T20:33:31.567Z,10.30
2022-11-03T20:35:59.457Z,10.80
2022-11-03T20:38:28.125Z,8.60
2022-11-03T20:41:03.851Z,8.60
2022-11-03T20:43:32.627Z,9.60
2022-11-03T20:46:00.513Z,7.40
2022-11-03T20:48:28.013Z,7.20
2022-11-03T20:50:55.780Z,6.80
2022-11-03T20:53:25.229Z,6.70
2022-11-03T20:55:53.449Z,9.30
2022-11-03T20:58:21.206Z,7.70
2022-11-03T21:03:37.987Z,8.60
2022-11-03T21:08:35.254Z,9.80
2022-11-03T21:11:23.467Z,7.00
2022-11-03T21:14:14.272Z,7.30
2022-11-03T21:17:00.111Z,10.00
2022-11-03T21:22:38.342Z,8.70
2022-11-03T21:27:43.781Z,10.40
2022-11-03T21:30:18.431Z,10.50
2022-11-03T21:35:19.708Z,8.70
2022-11-03T21:43:00.865Z,10.40
2022-11-03T21:45:28.351Z,10.30
2022-11-03T21:50:44.217Z,8.70
2022-11-03T22:00:37.879Z,8.40
2022-11-03T22:03:08.451Z,8.70
2022-11-03T22:12:59.194Z,9.90
2022-11-03T22:26:35.238Z,8.70
2022-11-03T22:37:07.305Z,7.70
2022-11-03T22:52:52.804Z,7.40
2022-11-03T22:55:20.189Z,7.70
2022-11-03T23:00:20.384Z,8.80
2022-11-03T23:10:11.946Z,10.40
2022-11-03T23:15:26.348Z,10.20
2022-11-03T23:20:58.845Z,7.10
2022-11-03T23:23:45.072Z,10.30
2022-11-03T23:36:12.671Z,8.70
2022-11-03T23:41:18.642Z,10.10
2022-11-03T23:43:46.739Z,7.30
2022-11-03T23:49:01.127Z,7.80
2022-11-03T23:51:30.033Z,8.20
2022-11-03T23:53:58.617Z,8.60
2022-11-03T23:56:46.848Z,8.60
2022-11-03T23:59:15.900Z,7.20
